sensor_id;sensor_type;location;lat;lon;timestamp;noise_LAeq;noise_LA_min;noise_LA_max;noise_LA01;noise_LA95
66450;Laerm;56829;52.274;4.770;2023-05-14T00:00:08;39.85;38.26;42.05;;
66450;Laerm;56829;52.274;4.770;2023-05-14T00:00:19;39.70;37.54;44.74;;
66450;Laerm;56829;52.274;4.770;2023-05-14T00:00:29;40.47;38.39;43.34;;
66450;Laerm;56829;52.274;4.770;2023-05-14T00:00:39;40.69;38.45;42.72;;
66450;Laerm;56829;52.274;4.770;2023-05-14T00:00:49;43.04;39.99;47.32;;
66450;Laerm;56829;52.274;4.770;2023-05-14T00:00:59;52.61;41.94;61.10;;
66450;Laerm;56829;52.274;4.770;2023-05-14T00:01:10;45.12;40.58;52.90;;
66450;Laerm;56829;52.274;4.770;2023-05-14T00:01:20;40.54;38.07;47.79;;
66450;Laerm;56829;52.274;4.770;2023-05-14T00:01:30;39.38;37.41;40.83;;
66450;Laerm;56829;52.274;4.770;2023-05-14T00:01:40;39.98;37.91;41.75;;
66450;Laerm;56829;52.274;4.770;2023-05-14T00:01:51;39.73;38.01;41.62;;
66450;Laerm;56829;52.274;4.770;2023-05-14T00:02:01;40.06;38.45;42.52;;
66450;Laerm;56829;52.274;4.770;2023-05-14T00:02:11;39.94;37.72;41.40;;
66450;Laerm;56829;52.274;4.770;2023-05-14T00:02:22;40.82;38.76;42.93;;
66450;Laerm;56829;52.274;4.770;2023-05-14T00:02:32;41.11;38.19;43.35;;
66450;Laerm;56829;52.274;4.770;2023-05-14T00:02:42;40.52;38.56;42.82;;
66450;Laerm;56829;52.274;4.770;2023-05-14T00:02:52;44.24;39.46;53.45;;
66450;Laerm;56829;52.274;4.770;2023-05-14T00:03:03;51.84;45.54;57.47;;
66450;Laerm;56829;52.274;4.770;2023-05-14T00:03:13;49.69;41.53;57.87;;
66450;Laerm;56829;52.274;4.770;2023-05-14T00:03:23;40.88;37.84;44.00;;
66450;Laerm;56829;52.274;4.770;2023-05-14T00:03:33;39.42;37.28;41.39;;
66450;Laerm;56829;52.274;4.770;2023-05-14T00:03:44;39.03;36.33;41.59;;
66450;Laerm;56829;52.274;4.770;2023-05-14T00:03:54;39.51;36.92;41.56;;
66450;Laerm;56829;52.274;4.770;2023-05-14T00:04:04;39.16;36.45;41.08;;
66450;Laerm;56829;52.274;4.770;2023-05-14T00:04:14;39.89;38.20;41.78;;
66450;Laerm;56829;52.274;4.770;2023-05-14T00:04:25;40.37;38.25;42.20;;
66450;Laerm;56829;52.274;4.770;2023-05-14T00:04:35;41.58;39.25;43.93;;
66450;Laerm;56829;52.274;4.770;2023-05-14T00:04:45;42.43;39.88;45.03;;
66450;Laerm;56829;52.274;4.770;2023-05-14T00:04:55;40.90;38.25;43.24;;
66450;Laerm;56829;52.274;4.770;2023-05-14T00:05:06;40.40;38.73;42.62;;
66450;Laerm;56829;52.274;4.770;2023-05-14T00:05:16;40.64;37.95;43.49;;
66450;Laerm;56829;52.274;4.770;2023-05-14T00:05:26;39.84;37.28;42.33;;
66450;Laerm;56829;52.274;4.770;2023-05-14T00:05:36;41.64;38.65;46.26;;
66450;Laerm;56829;52.274;4.770;2023-05-14T00:05:47;42.58;39.33;48.68;;
66450;Laerm;56829;52.274;4.770;2023-05-14T00:05:57;46.94;41.21;54.69;;
66450;Laerm;56829;52.274;4.770;2023-05-14T00:06:07;42.65;39.37;45.01;;
66450;Laerm;56829;52.274;4.770;2023-05-14T00:06:19;41.63;38.83;45.10;;
66450;Laerm;56829;52.274;4.770;2023-05-14T00:06:29;42.66;38.91;47.12;;
66450;Laerm;56829;52.274;4.770;2023-05-14T00:06:40;48.51;39.28;54.93;;
66450;Laerm;56829;52.274;4.770;2023-05-14T00:06:51;41.41;39.01;45.47;;
66450;Laerm;56829;52.274;4.770;2023-05-14T00:07:01;41.66;39.23;44.91;;
66450;Laerm;56829;52.274;4.770;2023-05-14T00:07:11;43.28;39.69;48.47;;
66450;Laerm;56829;52.274;4.770;2023-05-14T00:07:21;44.14;40.42;50.20;;
66450;Laerm;56829;52.274;4.770;2023-05-14T00:07:32;42.03;38.38;46.66;;
66450;Laerm;56829;52.274;4.770;2023-05-14T00:07:42;42.66;37.44;50.76;;
66450;Laerm;56829;52.274;4.770;2023-05-14T00:07:52;42.73;39.00;46.29;;
66450;Laerm;56829;52.274;4.770;2023-05-14T00:08:02;42.57;40.01;45.49;;
66450;Laerm;56829;52.274;4.770;2023-05-14T00:08:13;44.10;41.16;48.02;;
66450;Laerm;56829;52.274;4.770;2023-05-14T00:08:23;42.56;39.38;46.54;;
66450;Laerm;56829;52.274;4.770;2023-05-14T00:08:36;44.35;39.98;54.01;;
66450;Laerm;56829;52.274;4.770;2023-05-14T00:08:46;50.69;43.49;56.87;;
66450;Laerm;56829;52.274;4.770;2023-05-14T00:08:56;51.56;43.27;62.52;;
66450;Laerm;56829;52.274;4.770;2023-05-14T00:09:07;45.43;38.96;56.63;;
66450;Laerm;56829;52.274;4.770;2023-05-14T00:09:17;42.46;38.56;46.43;;
66450;Laerm;56829;52.274;4.770;2023-05-14T00:09:27;40.81;37.78;44.42;;
66450;Laerm;56829;52.274;4.770;2023-05-14T00:09:39;41.12;38.63;43.44;;
66450;Laerm;56829;52.274;4.770;2023-05-14T00:09:49;41.13;38.69;43.12;;
66450;Laerm;56829;52.274;4.770;2023-05-14T00:09:59;40.90;37.59;43.73;;
66450;Laerm;56829;52.274;4.770;2023-05-14T00:10:12;39.14;35.91;44.63;;
66450;Laerm;56829;52.274;4.770;2023-05-14T00:10:23;39.36;37.04;42.92;;
66450;Laerm;56829;52.274;4.770;2023-05-14T00:10:33;40.02;37.87;43.05;;
66450;Laerm;56829;52.274;4.770;2023-05-14T00:10:43;40.17;37.64;47.02;;
66450;Laerm;56829;52.274;4.770;2023-05-14T00:10:53;39.36;37.21;42.05;;
66450;Laerm;56829;52.274;4.770;2023-05-14T00:11:04;39.47;37.31;42.10;;
66450;Laerm;56829;52.274;4.770;2023-05-14T00:11:14;39.28;37.31;40.66;;
66450;Laerm;56829;52.274;4.770;2023-05-14T00:11:24;39.00;36.95;41.02;;
66450;Laerm;56829;52.274;4.770;2023-05-14T00:11:35;39.55;37.13;41.87;;
66450;Laerm;56829;52.274;4.770;2023-05-14T00:11:45;39.44;37.14;43.08;;
66450;Laerm;56829;52.274;4.770;2023-05-14T00:11:55;40.23;37.11;42.51;;
66450;Laerm;56829;52.274;4.770;2023-05-14T00:12:05;40.53;38.54;42.82;;
66450;Laerm;56829;52.274;4.770;2023-05-14T00:12:15;43.06;40.11;45.46;;
66450;Laerm;56829;52.274;4.770;2023-05-14T00:12:26;56.98;41.85;66.35;;
66450;Laerm;56829;52.274;4.770;2023-05-14T00:12:36;55.45;41.39;63.07;;
66450;Laerm;56829;52.274;4.770;2023-05-14T00:12:46;43.34;39.82;48.97;;
66450;Laerm;56829;52.274;4.770;2023-05-14T00:12:56;39.99;37.00;46.21;;
66450;Laerm;56829;52.274;4.770;2023-05-14T00:13:07;38.41;36.43;40.51;;
66450;Laerm;56829;52.274;4.770;2023-05-14T00:13:17;39.35;36.68;42.53;;
66450;Laerm;56829;52.274;4.770;2023-05-14T00:13:27;39.53;37.41;41.92;;
66450;Laerm;56829;52.274;4.770;2023-05-14T00:13:37;39.94;38.12;41.76;;
66450;Laerm;56829;52.274;4.770;2023-05-14T00:13:48;40.82;37.76;45.77;;
66450;Laerm;56829;52.274;4.770;2023-05-14T00:13:58;39.45;37.10;41.33;;
66450;Laerm;56829;52.274;4.770;2023-05-14T00:14:09;40.24;38.42;42.46;;
66450;Laerm;56829;52.274;4.770;2023-05-14T00:14:19;40.39;38.17;42.23;;
66450;Laerm;56829;52.274;4.770;2023-05-14T00:14:29;45.88;39.68;55.85;;
66450;Laerm;56829;52.274;4.770;2023-05-14T00:14:40;45.20;39.94;51.58;;
66450;Laerm;56829;52.274;4.770;2023-05-14T00:14:50;43.01;38.89;48.01;;
66450;Laerm;56829;52.274;4.770;2023-05-14T00:15:01;48.74;40.39;56.78;;
66450;Laerm;56829;52.274;4.770;2023-05-14T00:15:11;41.48;38.95;43.71;;
66450;Laerm;56829;52.274;4.770;2023-05-14T00:15:21;40.71;37.71;43.47;;
66450;Laerm;56829;52.274;4.770;2023-05-14T00:15:31;41.53;39.10;46.13;;
66450;Laerm;56829;52.274;4.770;2023-05-14T00:15:42;46.87;40.14;54.91;;
66450;Laerm;56829;52.274;4.770;2023-05-14T00:15:52;50.76;46.56;55.59;;
66450;Laerm;56829;52.274;4.770;2023-05-14T00:16:02;48.60;44.37;52.64;;
66450;Laerm;56829;52.274;4.770;2023-05-14T00:16:12;45.45;42.49;48.06;;
66450;Laerm;56829;52.274;4.770;2023-05-14T00:16:23;53.24;43.75;61.76;;
66450;Laerm;56829;52.274;4.770;2023-05-14T00:16:33;44.49;38.82;53.28;;
66450;Laerm;56829;52.274;4.770;2023-05-14T00:16:43;42.69;37.57;48.35;;
66450;Laerm;56829;52.274;4.770;2023-05-14T00:16:53;51.17;42.53;59.07;;
66450;Laerm;56829;52.274;4.770;2023-05-14T00:17:03;42.01;38.85;45.99;;
66450;Laerm;56829;52.274;4.770;2023-05-14T00:17:15;40.13;37.67;42.28;;
66450;Laerm;56829;52.274;4.770;2023-05-14T00:17:25;38.27;36.52;39.88;;
66450;Laerm;56829;52.274;4.770;2023-05-14T00:17:36;44.50;37.73;51.20;;
66450;Laerm;56829;52.274;4.770;2023-05-14T00:17:46;49.26;40.44;56.82;;
66450;Laerm;56829;52.274;4.770;2023-05-14T00:17:56;40.74;38.91;43.01;;
66450;Laerm;56829;52.274;4.770;2023-05-14T00:18:07;39.82;37.83;41.87;;
66450;Laerm;56829;52.274;4.770;2023-05-14T00:18:21;39.81;37.67;42.06;;
66450;Laerm;56829;52.274;4.770;2023-05-14T00:18:31;39.95;38.21;42.04;;
66450;Laerm;56829;52.274;4.770;2023-05-14T00:18:41;39.32;37.26;41.66;;
66450;Laerm;56829;52.274;4.770;2023-05-14T00:18:51;39.40;37.39;41.00;;
66450;Laerm;56829;52.274;4.770;2023-05-14T00:19:01;39.64;37.52;42.60;;
66450;Laerm;56829;52.274;4.770;2023-05-14T00:19:12;38.64;36.70;41.02;;
66450;Laerm;56829;52.274;4.770;2023-05-14T00:19:22;39.51;37.58;42.00;;
66450;Laerm;56829;52.274;4.770;2023-05-14T00:19:33;39.73;37.09;42.12;;
66450;Laerm;56829;52.274;4.770;2023-05-14T00:19:43;40.08;38.12;42.07;;
66450;Laerm;56829;52.274;4.770;2023-05-14T00:19:53;40.60;38.14;42.63;;
66450;Laerm;56829;52.274;4.770;2023-05-14T00:20:04;40.11;37.77;42.43;;
66450;Laerm;56829;52.274;4.770;2023-05-14T00:20:16;40.06;37.80;41.98;;
66450;Laerm;56829;52.274;4.770;2023-05-14T00:20:26;48.90;39.86;56.26;;
66450;Laerm;56829;52.274;4.770;2023-05-14T00:20:36;49.38;42.84;56.32;;
66450;Laerm;56829;52.274;4.770;2023-05-14T00:20:46;51.85;42.98;59.24;;
66450;Laerm;56829;52.274;4.770;2023-05-14T00:20:57;45.48;40.90;51.87;;
66450;Laerm;56829;52.274;4.770;2023-05-14T00:21:07;42.70;37.70;50.53;;
66450;Laerm;56829;52.274;4.770;2023-05-14T00:21:17;39.75;37.73;42.72;;
66450;Laerm;56829;52.274;4.770;2023-05-14T00:21:27;39.99;37.17;44.83;;
66450;Laerm;56829;52.274;4.770;2023-05-14T00:21:37;51.76;41.92;61.25;;
66450;Laerm;56829;52.274;4.770;2023-05-14T00:21:48;42.11;38.72;47.85;;
66450;Laerm;56829;52.274;4.770;2023-05-14T00:21:58;41.79;37.84;47.16;;
66450;Laerm;56829;52.274;4.770;2023-05-14T00:22:08;53.05;42.76;61.53;;
66450;Laerm;56829;52.274;4.770;2023-05-14T00:22:18;51.77;47.14;59.12;;
66450;Laerm;56829;52.274;4.770;2023-05-14T00:22:29;48.64;41.36;54.46;;
66450;Laerm;56829;52.274;4.770;2023-05-14T00:22:39;43.47;39.62;49.09;;
66450;Laerm;56829;52.274;4.770;2023-05-14T00:22:49;43.59;39.91;49.79;;
66450;Laerm;56829;52.274;4.770;2023-05-14T00:22:59;51.24;41.75;58.14;;
66450;Laerm;56829;52.274;4.770;2023-05-14T00:23:10;41.67;38.83;45.08;;
66450;Laerm;56829;52.274;4.770;2023-05-14T00:23:20;39.96;37.61;41.61;;
66450;Laerm;56829;52.274;4.770;2023-05-14T00:23:31;40.91;38.44;44.87;;
66450;Laerm;56829;52.274;4.770;2023-05-14T00:23:41;39.93;37.06;45.94;;
66450;Laerm;56829;52.274;4.770;2023-05-14T00:23:51;39.76;37.30;46.48;;
66450;Laerm;56829;52.274;4.770;2023-05-14T00:24:01;39.03;36.31;41.37;;
66450;Laerm;56829;52.274;4.770;2023-05-14T00:24:12;37.79;35.27;40.21;;
66450;Laerm;56829;52.274;4.770;2023-05-14T00:24:22;38.62;36.57;40.62;;
66450;Laerm;56829;52.274;4.770;2023-05-14T00:24:32;38.61;36.76;40.22;;
66450;Laerm;56829;52.274;4.770;2023-05-14T00:24:43;38.80;36.51;42.10;;
66450;Laerm;56829;52.274;4.770;2023-05-14T00:24:53;39.61;37.68;41.41;;
66450;Laerm;56829;52.274;4.770;2023-05-14T00:25:04;39.80;37.51;41.80;;
66450;Laerm;56829;52.274;4.770;2023-05-14T00:25:14;49.53;37.84;60.87;;
66450;Laerm;56829;52.274;4.770;2023-05-14T00:25:24;62.00;50.28;69.84;;
66450;Laerm;56829;52.274;4.770;2023-05-14T00:25:34;52.44;47.09;58.05;;
66450;Laerm;56829;52.274;4.770;2023-05-14T00:25:45;45.10;40.87;50.81;;
66450;Laerm;56829;52.274;4.770;2023-05-14T00:25:55;50.39;40.71;59.84;;
66450;Laerm;56829;52.274;4.770;2023-05-14T00:26:05;39.96;37.75;42.77;;
66450;Laerm;56829;52.274;4.770;2023-05-14T00:26:15;48.06;38.41;55.50;;
66450;Laerm;56829;52.274;4.770;2023-05-14T00:26:25;53.62;43.15;63.44;;
66450;Laerm;56829;52.274;4.770;2023-05-14T00:26:36;42.29;38.76;47.93;;
66450;Laerm;56829;52.274;4.770;2023-05-14T00:26:46;39.37;37.23;42.08;;
66450;Laerm;56829;52.274;4.770;2023-05-14T00:26:56;39.43;36.77;42.36;;
66450;Laerm;56829;52.274;4.770;2023-05-14T00:27:06;39.26;37.11;40.93;;
66450;Laerm;56829;52.274;4.770;2023-05-14T00:27:16;39.65;37.64;41.55;;
66450;Laerm;56829;52.274;4.770;2023-05-14T00:27:27;39.80;36.87;44.24;;
66450;Laerm;56829;52.274;4.770;2023-05-14T00:27:37;40.17;37.81;44.38;;
66450;Laerm;56829;52.274;4.770;2023-05-14T00:27:47;40.28;38.32;43.22;;
66450;Laerm;56829;52.274;4.770;2023-05-14T00:27:57;40.25;38.66;41.70;;
66450;Laerm;56829;52.274;4.770;2023-05-14T00:28:08;41.47;38.56;44.12;;
66450;Laerm;56829;52.274;4.770;2023-05-14T00:28:18;50.75;41.79;59.33;;
66450;Laerm;56829;52.274;4.770;2023-05-14T00:28:28;53.87;43.41;61.07;;
66450;Laerm;56829;52.274;4.770;2023-05-14T00:28:38;43.21;38.93;48.11;;
66450;Laerm;56829;52.274;4.770;2023-05-14T00:28:48;40.65;37.83;47.15;;
66450;Laerm;56829;52.274;4.770;2023-05-14T00:28:59;38.86;37.20;40.92;;
66450;Laerm;56829;52.274;4.770;2023-05-14T00:29:09;40.60;37.08;48.39;;
66450;Laerm;56829;52.274;4.770;2023-05-14T00:29:19;41.57;38.04;43.93;;
66450;Laerm;56829;52.274;4.770;2023-05-14T00:29:29;44.70;40.31;49.96;;
66450;Laerm;56829;52.274;4.770;2023-05-14T00:29:40;44.98;40.32;50.10;;
66450;Laerm;56829;52.274;4.770;2023-05-14T00:29:50;43.08;40.48;46.20;;
66450;Laerm;56829;52.274;4.770;2023-05-14T00:30:00;40.69;38.32;43.17;;
66450;Laerm;56829;52.274;4.770;2023-05-14T00:30:10;39.87;37.57;42.57;;
66450;Laerm;56829;52.274;4.770;2023-05-14T00:30:20;39.45;37.58;43.94;;
66450;Laerm;56829;52.274;4.770;2023-05-14T00:30:31;39.93;38.15;42.98;;
66450;Laerm;56829;52.274;4.770;2023-05-14T00:30:41;39.91;37.73;43.08;;
66450;Laerm;56829;52.274;4.770;2023-05-14T00:30:51;40.19;37.65;45.44;;
66450;Laerm;56829;52.274;4.770;2023-05-14T00:31:01;39.01;36.75;40.65;;
66450;Laerm;56829;52.274;4.770;2023-05-14T00:31:12;38.98;36.90;43.52;;
66450;Laerm;56829;52.274;4.770;2023-05-14T00:31:22;39.28;36.77;41.08;;
66450;Laerm;56829;52.274;4.770;2023-05-14T00:31:33;39.44;37.24;42.62;;
66450;Laerm;56829;52.274;4.770;2023-05-14T00:31:43;38.82;36.52;40.62;;
66450;Laerm;56829;52.274;4.770;2023-05-14T00:31:53;39.14;36.79;40.72;;
66450;Laerm;56829;52.274;4.770;2023-05-14T00:32:03;39.62;37.74;42.42;;
66450;Laerm;56829;52.274;4.770;2023-05-14T00:32:14;39.16;37.64;41.59;;
66450;Laerm;56829;52.274;4.770;2023-05-14T00:32:24;39.92;37.22;44.35;;
66450;Laerm;56829;52.274;4.770;2023-05-14T00:32:34;39.30;37.19;42.17;;
66450;Laerm;56829;52.274;4.770;2023-05-14T00:32:44;39.22;37.16;40.92;;
66450;Laerm;56829;52.274;4.770;2023-05-14T00:32:54;38.79;36.31;42.82;;
66450;Laerm;56829;52.274;4.770;2023-05-14T00:33:06;39.25;37.56;41.33;;
66450;Laerm;56829;52.274;4.770;2023-05-14T00:33:16;39.08;37.22;42.67;;
66450;Laerm;56829;52.274;4.770;2023-05-14T00:33:26;38.96;36.65;41.53;;
66450;Laerm;56829;52.274;4.770;2023-05-14T00:33:36;39.67;37.76;41.96;;
66450;Laerm;56829;52.274;4.770;2023-05-14T00:33:46;38.60;36.60;41.47;;
66450;Laerm;56829;52.274;4.770;2023-05-14T00:33:57;39.30;37.14;42.85;;
66450;Laerm;56829;52.274;4.770;2023-05-14T00:34:07;42.95;38.36;48.49;;
66450;Laerm;56829;52.274;4.770;2023-05-14T00:34:17;43.24;38.99;49.02;;
66450;Laerm;56829;52.274;4.770;2023-05-14T00:34:27;42.24;38.09;49.05;;
66450;Laerm;56829;52.274;4.770;2023-05-14T00:34:37;40.70;38.21;44.92;;
66450;Laerm;56829;52.274;4.770;2023-05-14T00:34:48;38.82;36.63;40.82;;
66450;Laerm;56829;52.274;4.770;2023-05-14T00:34:58;39.30;37.28;44.59;;
66450;Laerm;56829;52.274;4.770;2023-05-14T00:35:08;40.12;37.31;43.98;;
66450;Laerm;56829;52.274;4.770;2023-05-14T00:35:18;44.68;39.52;49.20;;
66450;Laerm;56829;52.274;4.770;2023-05-14T00:35:30;46.42;42.44;51.91;;
66450;Laerm;56829;52.274;4.770;2023-05-14T00:35:40;45.09;40.62;48.20;;
66450;Laerm;56829;52.274;4.770;2023-05-14T00:35:50;41.53;39.07;46.52;;
66450;Laerm;56829;52.274;4.770;2023-05-14T00:36:00;41.50;39.24;44.32;;
66450;Laerm;56829;52.274;4.770;2023-05-14T00:36:11;41.07;38.57;45.87;;
66450;Laerm;56829;52.274;4.770;2023-05-14T00:36:21;38.89;36.91;41.13;;
66450;Laerm;56829;52.274;4.770;2023-05-14T00:36:31;38.31;36.54;40.39;;
66450;Laerm;56829;52.274;4.770;2023-05-14T00:36:41;39.50;36.80;42.83;;
66450;Laerm;56829;52.274;4.770;2023-05-14T00:36:52;38.71;36.47;40.47;;
66450;Laerm;56829;52.274;4.770;2023-05-14T00:37:02;39.31;36.98;46.53;;
66450;Laerm;56829;52.274;4.770;2023-05-14T00:37:12;41.29;37.92;49.38;;
66450;Laerm;56829;52.274;4.770;2023-05-14T00:37:23;40.08;37.44;43.92;;
66450;Laerm;56829;52.274;4.770;2023-05-14T00:37:33;41.39;38.68;45.95;;
66450;Laerm;56829;52.274;4.770;2023-05-14T00:37:43;39.79;37.91;41.70;;
66450;Laerm;56829;52.274;4.770;2023-05-14T00:37:53;39.29;37.61;40.90;;
66450;Laerm;56829;52.274;4.770;2023-05-14T00:38:04;39.26;37.47;41.32;;
66450;Laerm;56829;52.274;4.770;2023-05-14T00:38:14;39.81;37.59;42.08;;
66450;Laerm;56829;52.274;4.770;2023-05-14T00:38:28;42.91;37.65;52.27;;
66450;Laerm;56829;52.274;4.770;2023-05-14T00:38:38;44.99;41.67;49.65;;
66450;Laerm;56829;52.274;4.770;2023-05-14T00:38:48;52.62;46.56;58.94;;
66450;Laerm;56829;52.274;4.770;2023-05-14T00:38:58;43.99;39.56;48.41;;
66450;Laerm;56829;52.274;4.770;2023-05-14T00:39:09;46.25;40.25;51.00;;
66450;Laerm;56829;52.274;4.770;2023-05-14T00:39:19;52.58;42.64;61.19;;
66450;Laerm;56829;52.274;4.770;2023-05-14T00:39:29;44.02;40.39;48.46;;
66450;Laerm;56829;52.274;4.770;2023-05-14T00:39:39;50.89;42.40;58.85;;
66450;Laerm;56829;52.274;4.770;2023-05-14T00:39:49;46.41;42.89;51.44;;
66450;Laerm;56829;52.274;4.770;2023-05-14T00:40:00;48.21;40.82;55.35;;
66450;Laerm;56829;52.274;4.770;2023-05-14T00:40:10;43.11;40.02;49.11;;
66450;Laerm;56829;52.274;4.770;2023-05-14T00:40:25;43.80;40.78;49.99;;
66450;Laerm;56829;52.274;4.770;2023-05-14T00:40:36;48.15;42.05;55.99;;
66450;Laerm;56829;52.274;4.770;2023-05-14T00:40:46;40.67;38.11;45.71;;
66450;Laerm;56829;52.274;4.770;2023-05-14T00:41:00;40.38;37.63;43.93;;
66450;Laerm;56829;52.274;4.770;2023-05-14T00:41:10;42.82;40.41;45.62;;
66450;Laerm;56829;52.274;4.770;2023-05-14T00:41:21;52.83;43.65;58.96;;
66450;Laerm;56829;52.274;4.770;2023-05-14T00:41:31;61.66;52.82;66.42;;
66450;Laerm;56829;52.274;4.770;2023-05-14T00:41:42;49.72;41.78;55.51;;
66450;Laerm;56829;52.274;4.770;2023-05-14T00:41:52;43.56;40.92;46.36;;
66450;Laerm;56829;52.274;4.770;2023-05-14T00:42:02;40.06;37.91;42.86;;
66450;Laerm;56829;52.274;4.770;2023-05-14T00:42:12;39.83;37.42;41.61;;
66450;Laerm;56829;52.274;4.770;2023-05-14T00:42:23;39.71;37.69;41.82;;
66450;Laerm;56829;52.274;4.770;2023-05-14T00:42:33;40.95;38.79;44.64;;
66450;Laerm;56829;52.274;4.770;2023-05-14T00:42:43;39.60;36.96;41.50;;
66450;Laerm;56829;52.274;4.770;2023-05-14T00:42:54;39.14;37.23;41.02;;
66450;Laerm;56829;52.274;4.770;2023-05-14T00:43:04;39.10;37.24;42.21;;
66450;Laerm;56829;52.274;4.770;2023-05-14T00:43:14;40.50;37.03;45.56;;
66450;Laerm;56829;52.274;4.770;2023-05-14T00:43:24;40.48;37.88;44.71;;
66450;Laerm;56829;52.274;4.770;2023-05-14T00:43:35;38.63;36.85;40.36;;
66450;Laerm;56829;52.274;4.770;2023-05-14T00:43:45;38.63;36.95;40.51;;
66450;Laerm;56829;52.274;4.770;2023-05-14T00:43:55;38.93;36.86;40.87;;
66450;Laerm;56829;52.274;4.770;2023-05-14T00:44:05;39.07;37.22;41.03;;
66450;Laerm;56829;52.274;4.770;2023-05-14T00:44:16;39.29;36.69;45.41;;
66450;Laerm;56829;52.274;4.770;2023-05-14T00:44:26;39.87;37.91;42.40;;
66450;Laerm;56829;52.274;4.770;2023-05-14T00:44:36;38.61;37.00;41.12;;
66450;Laerm;56829;52.274;4.770;2023-05-14T00:44:46;38.50;36.22;40.94;;
66450;Laerm;56829;52.274;4.770;2023-05-14T00:44:56;38.47;36.33;40.44;;
66450;Laerm;56829;52.274;4.770;2023-05-14T00:45:06;39.24;36.68;42.80;;
66450;Laerm;56829;52.274;4.770;2023-05-14T00:45:17;38.46;36.84;39.95;;
66450;Laerm;56829;52.274;4.770;2023-05-14T00:45:27;40.18;37.33;44.03;;
66450;Laerm;56829;52.274;4.770;2023-05-14T00:45:38;39.38;36.90;42.24;;
66450;Laerm;56829;52.274;4.770;2023-05-14T00:45:49;39.82;38.04;42.38;;
66450;Laerm;56829;52.274;4.770;2023-05-14T00:46:00;39.59;37.79;41.94;;
66450;Laerm;56829;52.274;4.770;2023-05-14T00:46:10;38.87;36.38;41.20;;
66450;Laerm;56829;52.274;4.770;2023-05-14T00:46:21;39.37;36.09;42.33;;
66450;Laerm;56829;52.274;4.770;2023-05-14T00:46:31;44.31;39.08;49.24;;
66450;Laerm;56829;52.274;4.770;2023-05-14T00:46:41;42.21;38.81;47.59;;
66450;Laerm;56829;52.274;4.770;2023-05-14T00:46:52;39.67;37.58;41.85;;
66450;Laerm;56829;52.274;4.770;2023-05-14T00:47:03;39.00;37.15;40.76;;
66450;Laerm;56829;52.274;4.770;2023-05-14T00:47:13;38.98;37.10;41.50;;
66450;Laerm;56829;52.274;4.770;2023-05-14T00:47:23;40.08;36.30;47.03;;
66450;Laerm;56829;52.274;4.770;2023-05-14T00:47:33;40.11;36.56;47.19;;
66450;Laerm;56829;52.274;4.770;2023-05-14T00:47:45;38.30;36.27;40.04;;
66450;Laerm;56829;52.274;4.770;2023-05-14T00:47:56;39.58;37.39;41.87;;
66450;Laerm;56829;52.274;4.770;2023-05-14T00:48:06;38.26;36.33;39.90;;
66450;Laerm;56829;52.274;4.770;2023-05-14T00:48:16;38.35;36.37;40.15;;
66450;Laerm;56829;52.274;4.770;2023-05-14T00:48:27;39.94;37.20;42.70;;
66450;Laerm;56829;52.274;4.770;2023-05-14T00:48:37;48.38;40.96;56.04;;
66450;Laerm;56829;52.274;4.770;2023-05-14T00:48:48;41.40;37.31;45.80;;
66450;Laerm;56829;52.274;4.770;2023-05-14T00:48:58;39.93;37.19;47.83;;
66450;Laerm;56829;52.274;4.770;2023-05-14T00:49:08;39.52;36.96;46.00;;
66450;Laerm;56829;52.274;4.770;2023-05-14T00:49:19;37.67;35.67;40.34;;
66450;Laerm;56829;52.274;4.770;2023-05-14T00:49:30;38.41;36.13;40.82;;
66450;Laerm;56829;52.274;4.770;2023-05-14T00:49:40;39.22;36.78;46.46;;
66450;Laerm;56829;52.274;4.770;2023-05-14T00:49:51;39.63;37.53;41.46;;
66450;Laerm;56829;52.274;4.770;2023-05-14T00:50:02;39.39;37.11;41.46;;
66450;Laerm;56829;52.274;4.770;2023-05-14T00:50:13;40.17;38.02;43.08;;
66450;Laerm;56829;52.274;4.770;2023-05-14T00:50:23;39.75;37.49;42.37;;
66450;Laerm;56829;52.274;4.770;2023-05-14T00:50:34;41.73;39.60;46.19;;
66450;Laerm;56829;52.274;4.770;2023-05-14T00:50:44;48.35;39.99;55.87;;
66450;Laerm;56829;52.274;4.770;2023-05-14T00:50:54;40.15;38.24;42.05;;
66450;Laerm;56829;52.274;4.770;2023-05-14T00:51:05;39.52;37.33;41.89;;
66450;Laerm;56829;52.274;4.770;2023-05-14T00:51:16;38.75;37.19;41.08;;
66450;Laerm;56829;52.274;4.770;2023-05-14T00:51:26;38.79;36.96;41.13;;
66450;Laerm;56829;52.274;4.770;2023-05-14T00:51:37;38.95;36.75;40.67;;
66450;Laerm;56829;52.274;4.770;2023-05-14T00:51:47;38.03;36.38;40.00;;
66450;Laerm;56829;52.274;4.770;2023-05-14T00:51:57;38.06;36.12;41.68;;
66450;Laerm;56829;52.274;4.770;2023-05-14T00:52:09;37.95;35.73;39.79;;
66450;Laerm;56829;52.274;4.770;2023-05-14T00:52:20;38.59;36.01;40.54;;
66450;Laerm;56829;52.274;4.770;2023-05-14T00:52:31;39.71;37.98;41.27;;
66450;Laerm;56829;52.274;4.770;2023-05-14T00:52:41;40.18;37.87;41.82;;
66450;Laerm;56829;52.274;4.770;2023-05-14T00:52:51;39.65;37.69;41.23;;
66450;Laerm;56829;52.274;4.770;2023-05-14T00:53:02;39.50;36.66;42.60;;
66450;Laerm;56829;52.274;4.770;2023-05-14T00:53:13;38.70;36.51;40.63;;
66450;Laerm;56829;52.274;4.770;2023-05-14T00:53:23;38.49;36.51;40.43;;
66450;Laerm;56829;52.274;4.770;2023-05-14T00:53:34;39.45;37.56;41.30;;
66450;Laerm;56829;52.274;4.770;2023-05-14T00:53:45;38.87;37.33;40.97;;
66450;Laerm;56829;52.274;4.770;2023-05-14T00:53:55;38.91;37.06;41.80;;
66450;Laerm;56829;52.274;4.770;2023-05-14T00:54:06;41.65;37.62;50.45;;
66450;Laerm;56829;52.274;4.770;2023-05-14T00:54:16;49.34;41.15;56.04;;
66450;Laerm;56829;52.274;4.770;2023-05-14T00:54:26;52.34;46.76;56.59;;
66450;Laerm;56829;52.274;4.770;2023-05-14T00:54:37;47.65;43.04;53.43;;
66450;Laerm;56829;52.274;4.770;2023-05-14T00:54:47;41.65;39.23;47.05;;
66450;Laerm;56829;52.274;4.770;2023-05-14T00:54:58;39.66;37.41;42.17;;
66450;Laerm;56829;52.274;4.770;2023-05-14T00:55:08;39.10;36.99;41.58;;
66450;Laerm;56829;52.274;4.770;2023-05-14T00:55:20;38.68;36.90;42.04;;
66450;Laerm;56829;52.274;4.770;2023-05-14T00:55:31;39.57;37.20;42.06;;
66450;Laerm;56829;52.274;4.770;2023-05-14T00:55:41;38.41;36.03;40.95;;
66450;Laerm;56829;52.274;4.770;2023-05-14T00:55:52;38.62;36.88;40.30;;
66450;Laerm;56829;52.274;4.770;2023-05-14T00:56:02;38.44;36.34;40.55;;
66450;Laerm;56829;52.274;4.770;2023-05-14T00:56:13;44.11;37.87;50.48;;
66450;Laerm;56829;52.274;4.770;2023-05-14T00:56:24;51.91;39.93;60.69;;
66450;Laerm;56829;52.274;4.770;2023-05-14T00:56:35;40.24;38.10;43.26;;
66450;Laerm;56829;52.274;4.770;2023-05-14T00:56:45;40.19;38.64;42.02;;
66450;Laerm;56829;52.274;4.770;2023-05-14T00:56:56;39.90;37.67;41.86;;
66450;Laerm;56829;52.274;4.770;2023-05-14T00:57:06;39.49;37.83;41.69;;
66450;Laerm;56829;52.274;4.770;2023-05-14T00:57:17;39.57;37.70;41.47;;
66450;Laerm;56829;52.274;4.770;2023-05-14T00:57:28;39.97;38.01;44.31;;
66450;Laerm;56829;52.274;4.770;2023-05-14T00:57:38;43.41;38.47;50.81;;
66450;Laerm;56829;52.274;4.770;2023-05-14T00:57:49;48.17;40.47;55.95;;
66450;Laerm;56829;52.274;4.770;2023-05-14T00:57:59;41.09;38.70;43.88;;
66450;Laerm;56829;52.274;4.770;2023-05-14T00:58:11;40.92;39.18;43.20;;
66450;Laerm;56829;52.274;4.770;2023-05-14T00:58:21;42.03;38.19;45.52;;